Time;durP1;ratioP1;P1;durP2;ratioP2;P2;SDS_P1;SDS_P2;PMS_P1;PMS_P2;Temp;Humidity;BMP_temperature;BMP_pressure;BME280_temperature;BME280_humidity;BME280_pressure;Samples;Min_cycle;Max_cycle;Signal;HPM_P1;HPM_P2
2022/02/23 00:00:18;;;;;;;13.80;2.50;;;;;;;;;;5064663;28;20037;-51
2022/02/23 00:02:44;;;;;;;9.40;1.90;;;;;;;;;;5069729;28;20025;-54
2022/02/23 00:05:10;;;;;;;9.50;1.13;;;;;;;;;;5069820;28;20111;-53
2022/02/23 00:07:36;;;;;;;7.22;1.85;;;;;;;;;;5054330;28;20533;-53
2022/02/23 00:10:03;;;;;;;9.68;1.80;;;;;;;;;;5068509;28;20029;-50
2022/02/23 00:12:29;;;;;;;6.18;1.40;;;;;;;;;;5061020;28;20029;-55
2022/02/23 00:14:57;;;;;;;4.82;1.50;;;;;;;;;;5070173;28;20016;-50
2022/02/23 00:17:25;;;;;;;7.60;1.40;;;;;;;;;;5065533;28;20021;-51
2022/02/23 00:19:51;;;;;;;13.25;2.53;;;;;;;;;;5070744;28;20481;-50
2022/02/23 00:22:17;;;;;;;13.27;2.08;;;;;;;;;;5066714;28;20158;-50
2022/02/23 00:24:43;;;;;;;13.35;1.90;;;;;;;;;;5072107;28;20421;-50
2022/02/23 00:27:08;;;;;;;4.45;1.20;;;;;;;;;;5070295;28;20033;-50
2022/02/23 00:29:35;;;;;;;10.90;2.15;;;;;;;;;;5060318;28;20032;-49
2022/02/23 00:32:01;;;;;;;12.48;1.85;;;;;;;;;;5056791;28;20067;-51
2022/02/23 00:34:27;;;;;;;13.43;2.72;;;;;;;;;;5070688;28;20024;-50
2022/02/23 00:36:54;;;;;;;12.50;1.90;;;;;;;;;;5068610;28;20023;-50
2022/02/23 00:39:20;;;;;;;16.95;2.22;;;;;;;;;;5064946;28;20610;-51
2022/02/23 00:41:46;;;;;;;12.52;2.90;;;;;;;;;;5057582;28;20028;-52
2022/02/23 00:44:12;;;;;;;14.05;2.33;;;;;;;;;;5060632;28;20150;-51
2022/02/23 00:46:38;;;;;;;22.42;3.22;;;;;;;;;;5066321;28;20029;-52
2022/02/23 00:49:04;;;;;;;11.32;2.22;;;;;;;;;;5059861;28;20489;-50
2022/02/23 00:51:30;;;;;;;12.82;1.90;;;;;;;;;;5061454;28;20039;-50
2022/02/23 00:53:57;;;;;;;14.65;2.58;;;;;;;;;;5066807;28;20071;-50
2022/02/23 00:56:23;;;;;;;18.48;2.95;;;;;;;;;;5068409;28;20095;-51
2022/02/23 00:58:49;;;;;;;13.18;3.58;;;;;;;;;;5071089;28;20031;-51
2022/02/23 01:01:15;;;;;;;12.82;2.67;;;;;;;;;;5065619;28;20029;-52
2022/02/23 01:03:41;;;;;;;6.10;1.85;;;;;;;;;;5061353;28;20021;-55
2022/02/23 01:06:07;;;;;;;7.25;1.90;;;;;;;;;;5060832;28;20021;-50
2022/02/23 01:08:33;;;;;;;7.90;2.50;;;;;;;;;;5057046;28;20032;-50
2022/02/23 01:10:59;;;;;;;16.35;1.77;;;;;;;;;;5064550;28;20051;-50
2022/02/23 01:13:25;;;;;;;11.23;1.85;;;;;;;;;;5072915;28;20111;-49
2022/02/23 01:15:52;;;;;;;15.43;2.33;;;;;;;;;;5062443;28;20031;-49
2022/02/23 01:18:17;;;;;;;10.77;2.20;;;;;;;;;;5067355;28;20376;-50
2022/02/23 01:20:43;;;;;;;13.70;2.53;;;;;;;;;;5069516;28;20029;-51
2022/02/23 01:23:10;;;;;;;15.90;2.22;;;;;;;;;;5074573;28;20476;-51
2022/02/23 01:25:36;;;;;;;12.32;2.40;;;;;;;;;;5071693;28;20033;-49
2022/02/23 01:28:03;;;;;;;21.83;3.85;;;;;;;;;;5068029;28;20376;-54
2022/02/23 01:30:30;;;;;;;12.43;2.63;;;;;;;;;;5063249;28;20040;-51
2022/02/23 01:32:56;;;;;;;14.15;2.10;;;;;;;;;;5066051;28;20081;-53
2022/02/23 01:35:22;;;;;;;9.02;1.60;;;;;;;;;;5059465;28;20021;-54
2022/02/23 01:37:48;;;;;;;9.00;2.38;;;;;;;;;;5073800;28;20122;-52
2022/02/23 01:40:15;;;;;;;8.10;2.08;;;;;;;;;;5074565;28;20518;-53
2022/02/23 01:42:41;;;;;;;14.73;2.75;;;;;;;;;;5068201;28;20044;-55
2022/02/23 01:45:08;;;;;;;16.35;2.90;;;;;;;;;;5058875;28;20075;-51
2022/02/23 01:47:34;;;;;;;9.68;2.05;;;;;;;;;;5063578;28;20067;-51
2022/02/23 01:50:00;;;;;;;20.05;3.13;;;;;;;;;;5071866;28;20507;-50
2022/02/23 01:52:26;;;;;;;8.00;2.13;;;;;;;;;;5063643;28;20028;-47
2022/02/23 01:54:53;;;;;;;12.95;2.53;;;;;;;;;;5067046;28;20040;-49
2022/02/23 01:57:20;;;;;;;14.68;3.75;;;;;;;;;;5070180;28;20040;-47
2022/02/23 01:59:46;;;;;;;15.13;3.28;;;;;;;;;;5074462;28;20063;-49
2022/02/23 02:02:12;;;;;;;20.40;2.72;;;;;;;;;;5070665;28;20044;-47
2022/02/23 02:04:38;;;;;;;10.25;2.08;;;;;;;;;;5070176;28;20051;-47
2022/02/23 02:07:04;;;;;;;7.95;1.73;;;;;;;;;;5071411;28;20468;-50
2022/02/23 02:09:30;;;;;;;15.90;2.35;;;;;;;;;;5074233;28;20480;-47
2022/02/23 02:11:56;;;;;;;10.55;2.25;;;;;;;;;;5062952;28;20046;-47
2022/02/23 02:14:22;;;;;;;22.63;2.28;;;;;;;;;;5062959;28;20528;-52
2022/02/23 02:16:48;;;;;;;11.85;2.45;;;;;;;;;;5064063;28;20028;-52
2022/02/23 02:19:14;;;;;;;11.07;2.38;;;;;;;;;;5059967;28;20481;-51
2022/02/23 02:21:51;;;;;;;13.85;1.75;;;;;;;;;;5066128;28;20028;-51
2022/02/23 02:24:17;;;;;;;14.88;2.60;;;;;;;;;;5074154;28;20031;-55
2022/02/23 02:26:43;;;;;;;15.90;3.05;;;;;;;;;;5071907;28;20033;-54
2022/02/23 02:29:09;;;;;;;10.35;2.55;;;;;;;;;;5066487;28;20064;-52
2022/02/23 02:31:34;;;;;;;13.95;2.55;;;;;;;;;;5061990;28;20402;-50
2022/02/23 02:34:00;;;;;;;10.77;2.15;;;;;;;;;;5068599;28;20032;-51
2022/02/23 02:36:26;;;;;;;16.08;2.80;;;;;;;;;;5065897;28;20111;-51
2022/02/23 02:38:52;;;;;;;14.23;2.28;;;;;;;;;;5063119;28;20075;-51
2022/02/23 02:41:18;;;;;;;11.88;2.08;;;;;;;;;;5067978;28;20052;-50
2022/02/23 02:43:44;;;;;;;12.35;2.10;;;;;;;;;;5066209;28;20380;-54
2022/02/23 02:46:10;;;;;;;9.90;1.88;;;;;;;;;;5070935;28;20074;-51
2022/02/23 02:48:36;;;;;;;15.65;1.98;;;;;;;;;;5067130;28;20025;-50
2022/02/23 02:51:02;;;;;;;7.22;1.58;;;;;;;;;;5071404;28;20028;-49
2022/02/23 02:53:28;;;;;;;8.63;1.45;;;;;;;;;;5066858;28;20040;-50
2022/02/23 02:55:54;;;;;;;15.20;2.35;;;;;;;;;;5068721;28;20044;-51
2022/02/23 02:58:20;;;;;;;9.60;2.47;;;;;;;;;;5069990;28;20438;-49
2022/02/23 03:00:46;;;;;;;15.98;3.15;;;;;;;;;;5068431;28;20029;-51
2022/02/23 03:03:12;;;;;;;19.63;2.72;;;;;;;;;;5057588;28;20055;-50
2022/02/23 03:05:38;;;;;;;9.60;2.13;;;;;;;;;;5072706;28;20025;-50
2022/02/23 03:08:04;;;;;;;15.18;2.25;;;;;;;;;;5060854;28;20103;-55
2022/02/23 03:10:30;;;;;;;14.45;2.45;;;;;;;;;;5069384;28;20037;-53
2022/02/23 03:12:56;;;;;;;14.57;3.05;;;;;;;;;;5070588;28;20055;-53
2022/02/23 03:15:22;;;;;;;9.55;1.73;;;;;;;;;;5073037;28;20091;-53
2022/02/23 03:17:48;;;;;;;10.07;2.42;;;;;;;;;;5060819;28;20032;-51
2022/02/23 03:20:14;;;;;;;10.40;2.42;;;;;;;;;;5068567;28;20039;-49
2022/02/23 03:22:41;;;;;;;18.63;3.35;;;;;;;;;;5067148;28;20103;-50
2022/02/23 03:25:07;;;;;;;13.20;2.50;;;;;;;;;;5061412;28;20439;-53
2022/02/23 03:27:33;;;;;;;15.20;2.58;;;;;;;;;;5065711;28;20032;-50
2022/02/23 03:29:59;;;;;;;7.15;1.80;;;;;;;;;;5066121;28;20118;-50
2022/02/23 03:32:25;;;;;;;9.02;2.10;;;;;;;;;;5057074;28;20579;-51
2022/02/23 03:34:51;;;;;;;12.25;2.75;;;;;;;;;;5072858;28;20024;-50
2022/02/23 03:37:17;;;;;;;10.68;1.95;;;;;;;;;;5065387;28;20055;-53
2022/02/23 03:39:43;;;;;;;14.95;2.60;;;;;;;;;;5060857;28;20671;-50
2022/02/23 03:42:09;;;;;;;7.82;1.90;;;;;;;;;;5058554;28;20086;-51
2022/02/23 03:44:35;;;;;;;10.02;2.33;;;;;;;;;;5068972;28;20029;-50
2022/02/23 03:47:01;;;;;;;20.80;2.55;;;;;;;;;;5070561;28;20036;-51
2022/02/23 03:49:28;;;;;;;12.35;2.85;;;;;;;;;;5064463;28;20037;-50
2022/02/23 03:51:54;;;;;;;11.13;2.65;;;;;;;;;;5063816;28;20024;-50
2022/02/23 03:54:20;;;;;;;16.65;2.95;;;;;;;;;;5063397;28;20099;-51
2022/02/23 03:56:46;;;;;;;16.52;2.67;;;;;;;;;;5065510;28;20436;-52
2022/02/23 03:59:15;;;;;;;13.60;3.15;;;;;;;;;;5063850;28;20029;-50
2022/02/23 04:01:45;;;;;;;10.25;2.03;;;;;;;;;;5064213;28;20025;-50
2022/02/23 04:04:11;;;;;;;26.38;2.67;;;;;;;;;;5064503;28;20029;-52
2022/02/23 04:06:37;;;;;;;12.55;2.92;;;;;;;;;;5066668;28;20495;-51
2022/02/23 04:09:08;;;;;;;12.88;2.30;;;;;;;;;;5058395;28;20430;-50
2022/02/23 04:11:34;;;;;;;13.45;2.08;;;;;;;;;;5066341;28;20029;-53
2022/02/23 04:14:01;;;;;;;15.18;2.53;;;;;;;;;;5065762;28;20029;-51
2022/02/23 04:16:27;;;;;;;10.68;2.03;;;;;;;;;;5067995;28;20094;-53
2022/02/23 04:18:53;;;;;;;12.82;1.90;;;;;;;;;;5065036;28;20016;-50
2022/02/23 04:21:19;;;;;;;13.75;2.03;;;;;;;;;;5071003;28;20036;-50
2022/02/23 04:23:45;;;;;;;10.70;2.40;;;;;;;;;;5068126;28;20435;-49
2022/02/23 04:26:12;;;;;;;22.05;3.10;;;;;;;;;;5070447;28;20037;-51
2022/02/23 04:28:38;;;;;;;13.02;2.88;;;;;;;;;;5062261;28;20616;-51
2022/02/23 04:31:04;;;;;;;18.65;3.55;;;;;;;;;;5058225;28;20647;-51
2022/02/23 04:33:30;;;;;;;7.38;2.13;;;;;;;;;;5056264;28;20112;-50
2022/02/23 04:35:57;;;;;;;10.15;3.13;;;;;;;;;;5069571;28;20373;-50
2022/02/23 04:38:23;;;;;;;12.23;2.60;;;;;;;;;;5067750;28;20040;-50
2022/02/23 04:40:49;;;;;;;17.02;2.95;;;;;;;;;;5070818;28;20037;-53
2022/02/23 04:43:16;;;;;;;11.90;2.63;;;;;;;;;;5066814;28;20106;-54
2022/02/23 04:45:42;;;;;;;17.42;2.42;;;;;;;;;;5059753;28;20484;-52
2022/02/23 04:48:08;;;;;;;14.30;2.35;;;;;;;;;;5061296;28;20077;-55
2022/02/23 04:50:34;;;;;;;15.52;2.63;;;;;;;;;;5074381;28;20063;-53
2022/02/23 04:53:01;;;;;;;15.20;2.35;;;;;;;;;;5075116;28;20029;-50
2022/02/23 04:55:27;;;;;;;8.60;1.85;;;;;;;;;;5074556;28;20045;-53
2022/02/23 04:57:53;;;;;;;12.18;2.60;;;;;;;;;;5066522;28;20053;-51
2022/02/23 05:00:19;;;;;;;13.07;3.53;;;;;;;;;;5072991;28;20043;-52
2022/02/23 05:02:45;;;;;;;10.75;2.25;;;;;;;;;;5072159;28;20024;-49
2022/02/23 05:05:11;;;;;;;26.90;2.65;;;;;;;;;;5072827;28;20116;-50
2022/02/23 05:07:37;;;;;;;12.23;2.47;;;;;;;;;;5064494;28;20036;-50
2022/02/23 05:10:03;;;;;;;10.45;1.95;;;;;;;;;;5058603;28;20029;-49
2022/02/23 05:12:31;;;;;;;13.15;2.75;;;;;;;;;;5064942;28;20043;-49
2022/02/23 05:14:57;;;;;;;17.95;2.03;;;;;;;;;;5055320;28;20111;-51
2022/02/23 05:17:24;;;;;;;15.02;2.60;;;;;;;;;;5069734;28;20115;-49
2022/02/23 05:19:50;;;;;;;15.57;2.25;;;;;;;;;;5073412;28;20025;-50
2022/02/23 05:22:16;;;;;;;18.30;3.22;;;;;;;;;;5064798;28;20051;-49
2022/02/23 05:24:42;;;;;;;15.57;2.47;;;;;;;;;;5075387;28;20081;-51
2022/02/23 05:27:08;;;;;;;16.90;2.35;;;;;;;;;;5066468;28;20028;-50
2022/02/23 05:29:34;;;;;;;10.93;1.95;;;;;;;;;;5067792;28;20024;-54
2022/02/23 05:32:00;;;;;;;19.10;3.65;;;;;;;;;;5072075;28;20025;-51
2022/02/23 05:34:26;;;;;;;9.05;2.03;;;;;;;;;;5057080;28;20025;-52
2022/02/23 05:36:52;;;;;;;13.75;3.20;;;;;;;;;;5069656;28;20024;-55
2022/02/23 05:39:18;;;;;;;28.38;3.17;;;;;;;;;;5070048;28;20025;-52
2022/02/23 05:41:44;;;;;;;13.43;2.40;;;;;;;;;;5067899;28;20052;-50
2022/02/23 05:44:10;;;;;;;8.43;2.00;;;;;;;;;;5066782;28;20039;-52
2022/02/23 05:46:36;;;;;;;23.20;2.55;;;;;;;;;;5070262;28;20429;-54
2022/02/23 05:49:03;;;;;;;13.68;2.78;;;;;;;;;;5063283;28;20077;-50
2022/02/23 05:51:30;;;;;;;13.23;1.92;;;;;;;;;;5055844;28;20039;-55
2022/02/23 05:53:57;;;;;;;23.45;3.10;;;;;;;;;;5069414;28;20032;-50
2022/02/23 05:56:23;;;;;;;13.45;2.85;;;;;;;;;;5064741;28;20028;-50
2022/02/23 05:58:49;;;;;;;9.55;2.83;;;;;;;;;;5068278;28;20484;-55
2022/02/23 06:01:15;;;;;;;11.07;1.77;;;;;;;;;;5071124;28;20185;-51
2022/02/23 06:03:41;;;;;;;18.15;2.85;;;;;;;;;;5068219;28;20036;-51
2022/02/23 06:06:07;;;;;;;17.08;2.78;;;;;;;;;;5062640;28;20048;-50
2022/02/23 06:08:33;;;;;;;20.50;3.45;;;;;;;;;;5069091;28;20068;-50
2022/02/23 06:10:59;;;;;;;10.02;1.98;;;;;;;;;;5069790;28;20480;-52
2022/02/23 06:13:25;;;;;;;15.82;3.10;;;;;;;;;;5065337;28;20462;-51
2022/02/23 06:15:51;;;;;;;9.85;1.98;;;;;;;;;;5064781;28;20021;-54
2022/02/23 06:18:17;;;;;;;11.38;2.65;;;;;;;;;;5064532;28;20036;-53
2022/02/23 06:20:43;;;;;;;15.55;2.83;;;;;;;;;;5067219;28;20032;-54
2022/02/23 06:23:09;;;;;;;12.85;3.35;;;;;;;;;;5069882;28;20036;-53
2022/02/23 06:25:35;;;;;;;15.63;2.13;;;;;;;;;;5065219;28;20090;-56
2022/02/23 06:28:04;;;;;;;9.32;2.45;;;;;;;;;;5063517;28;20032;-54
2022/02/23 06:30:30;;;;;;;15.73;2.85;;;;;;;;;;5067210;28;20540;-50
2022/02/23 06:32:56;;;;;;;18.42;2.38;;;;;;;;;;5067036;28;20020;-50
2022/02/23 06:35:24;;;;;;;13.27;2.45;;;;;;;;;;5067661;28;20124;-51
2022/02/23 06:37:50;;;;;;;13.70;2.45;;;;;;;;;;5062872;28;20025;-50
2022/02/23 06:40:16;;;;;;;15.13;2.00;;;;;;;;;;5062629;28;20086;-50
2022/02/23 06:42:42;;;;;;;17.38;3.08;;;;;;;;;;5060707;28;20039;-50
2022/02/23 06:45:08;;;;;;;18.38;2.60;;;;;;;;;;5064444;28;20021;-53
2022/02/23 06:47:34;;;;;;;15.15;2.67;;;;;;;;;;5062137;28;20099;-51
2022/02/23 06:50:00;;;;;;;9.25;2.40;;;;;;;;;;5060721;28;20110;-55
2022/02/23 06:52:28;;;;;;;10.38;2.75;;;;;;;;;;5064706;28;20119;-54
2022/02/23 06:54:55;;;;;;;10.15;2.03;;;;;;;;;;5065859;28;20060;-49
2022/02/23 06:57:21;;;;;;;13.20;2.03;;;;;;;;;;5069598;28;20029;-55
2022/02/23 06:59:47;;;;;;;12.05;2.97;;;;;;;;;;5058096;28;20167;-50
2022/02/23 07:02:13;;;;;;;14.10;2.70;;;;;;;;;;5066938;28;20052;-51
2022/02/23 07:04:40;;;;;;;10.32;2.63;;;;;;;;;;5062582;28;20039;-50
2022/02/23 07:07:06;;;;;;;11.40;2.85;;;;;;;;;;5064681;28;20082;-50
2022/02/23 07:09:33;;;;;;;12.07;2.47;;;;;;;;;;5063343;28;20040;-50
2022/02/23 07:12:02;;;;;;;12.93;2.97;;;;;;;;;;5065899;28;20025;-50
2022/02/23 07:14:28;;;;;;;14.82;2.47;;;;;;;;;;5068769;28;20031;-50
2022/02/23 07:16:54;;;;;;;16.75;2.67;;;;;;;;;;5067256;28;20020;-51
2022/02/23 07:19:21;;;;;;;10.57;2.53;;;;;;;;;;5057347;28;20020;-52
2022/02/23 07:21:47;;;;;;;13.15;2.28;;;;;;;;;;5058714;28;20384;-50
2022/02/23 07:24:13;;;;;;;11.48;1.88;;;;;;;;;;5066574;28;20024;-55
2022/02/23 07:26:39;;;;;;;15.15;2.67;;;;;;;;;;5072547;28;20093;-51
2022/02/23 07:29:06;;;;;;;7.28;1.88;;;;;;;;;;5068276;28;20092;-51
2022/02/23 07:31:32;;;;;;;12.77;2.97;;;;;;;;;;5069248;28;20033;-53
2022/02/23 07:33:58;;;;;;;15.23;2.38;;;;;;;;;;5058983;28;20020;-50
2022/02/23 07:36:24;;;;;;;9.48;1.95;;;;;;;;;;5069698;28;20461;-52
2022/02/23 07:38:51;;;;;;;9.10;1.83;;;;;;;;;;5062829;28;20067;-51
2022/02/23 07:41:22;;;;;;;16.52;2.42;;;;;;;;;;5061426;28;20049;-54
2022/02/23 07:43:48;;;;;;;12.48;2.60;;;;;;;;;;5062525;28;20040;-50
2022/02/23 07:46:14;;;;;;;15.32;3.08;;;;;;;;;;5064460;28;20032;-50
2022/02/23 07:48:41;;;;;;;19.00;2.08;;;;;;;;;;5061487;28;20031;-52
2022/02/23 07:51:07;;;;;;;12.32;2.70;;;;;;;;;;5059376;28;20036;-51
2022/02/23 07:53:33;;;;;;;13.18;2.15;;;;;;;;;;5058563;28;20102;-51
2022/02/23 07:55:59;;;;;;;7.13;1.90;;;;;;;;;;5054760;28;20152;-50
2022/02/23 07:58:25;;;;;;;17.63;2.33;;;;;;;;;;5070814;28;20037;-54
2022/02/23 08:00:51;;;;;;;11.38;2.55;;;;;;;;;;5069635;28;20039;-54
2022/02/23 08:03:17;;;;;;;16.10;2.20;;;;;;;;;;5067902;28;20028;-55
2022/02/23 08:05:44;;;;;;;8.63;2.47;;;;;;;;;;5060943;28;20035;-53
2022/02/23 08:08:10;;;;;;;9.35;1.55;;;;;;;;;;5063383;28;20036;-51
2022/02/23 08:10:36;;;;;;;16.55;2.10;;;;;;;;;;5063943;28;20107;-50
2022/02/23 08:13:05;;;;;;;9.52;1.75;;;;;;;;;;5067128;28;20021;-54
2022/02/23 08:21:01;;;;;;;11.60;1.80;;;;;;;;;;5070109;28;20114;-54
2022/02/23 08:23:27;;;;;;;13.43;2.50;;;;;;;;;;5063211;28;20056;-50
2022/02/23 08:25:53;;;;;;;8.30;1.60;;;;;;;;;;5066290;28;20040;-51
2022/02/23 08:28:19;;;;;;;9.93;2.25;;;;;;;;;;5062771;28;20035;-50
2022/02/23 08:30:48;;;;;;;15.13;2.22;;;;;;;;;;5066078;28;20029;-49
2022/02/23 08:33:14;;;;;;;10.50;2.03;;;;;;;;;;5063111;28;20048;-50
2022/02/23 08:35:41;;;;;;;11.57;1.92;;;;;;;;;;5065128;28;20025;-52
2022/02/23 08:38:11;;;;;;;6.55;1.98;;;;;;;;;;5055818;28;20398;-51
2022/02/23 08:40:37;;;;;;;11.52;2.30;;;;;;;;;;5060858;28;20029;-48
2022/02/23 08:43:03;;;;;;;8.05;1.67;;;;;;;;;;5063010;28;20032;-50
2022/02/23 08:45:33;;;;;;;12.40;2.25;;;;;;;;;;5068278;28;20085;-49
2022/02/23 08:47:59;;;;;;;12.50;2.30;;;;;;;;;;5059433;28;20123;-52
2022/02/23 08:50:25;;;;;;;9.20;1.85;;;;;;;;;;5071554;28;20560;-52
2022/02/23 08:52:51;;;;;;;11.65;2.72;;;;;;;;;;5058009;28;20143;-50
2022/02/23 08:55:17;;;;;;;14.52;2.13;;;;;;;;;;5062005;28;20524;-54
2022/02/23 08:57:43;;;;;;;14.98;1.50;;;;;;;;;;5071218;28;20361;-54
2022/02/23 09:00:09;;;;;;;12.15;1.65;;;;;;;;;;5057880;28;20124;-48
2022/02/23 09:02:35;;;;;;;11.68;2.05;;;;;;;;;;5064246;28;20089;-50
2022/02/23 09:05:01;;;;;;;14.25;1.65;;;;;;;;;;5057839;28;20025;-48
2022/02/23 09:07:28;;;;;;;8.52;2.65;;;;;;;;;;5063994;28;20029;-49
2022/02/23 09:09:54;;;;;;;8.85;1.70;;;;;;;;;;5061325;28;20024;-49
2022/02/23 09:12:23;;;;;;;8.35;2.20;;;;;;;;;;5064435;28;20111;-50
2022/02/23 09:14:49;;;;;;;8.25;1.63;;;;;;;;;;5058303;28;20041;-50
2022/02/23 09:17:16;;;;;;;11.95;1.75;;;;;;;;;;5062208;28;20050;-49
2022/02/23 09:19:42;;;;;;;9.90;1.92;;;;;;;;;;5061732;28;20050;-50
2022/02/23 09:22:08;;;;;;;10.93;1.52;;;;;;;;;;5061410;28;20036;-51
2022/02/23 09:24:34;;;;;;;6.55;1.10;;;;;;;;;;5081350;28;20495;-49
2022/02/23 09:27:02;;;;;;;6.07;2.25;;;;;;;;;;5064851;28;20029;-48
2022/02/23 09:29:28;;;;;;;14.50;2.30;;;;;;;;;;5069506;28;20040;-54
2022/02/23 09:31:54;;;;;;;13.13;2.35;;;;;;;;;;5062878;28;20039;-53
2022/02/23 09:34:23;;;;;;;4.22;1.13;;;;;;;;;;5068389;28;20016;-53
2022/02/23 09:36:49;;;;;;;7.78;1.60;;;;;;;;;;5068827;28;20032;-50
2022/02/23 09:39:15;;;;;;;7.85;1.40;;;;;;;;;;5072532;28;20029;-52
2022/02/23 09:41:42;;;;;;;3.35;1.13;;;;;;;;;;5064098;28;20476;-49
2022/02/23 09:44:07;;;;;;;14.15;2.20;;;;;;;;;;5061311;28;20477;-49
2022/02/23 09:46:33;;;;;;;10.00;1.50;;;;;;;;;;5065150;28;20112;-51
2022/02/23 09:48:59;;;;;;;6.15;1.40;;;;;;;;;;5072751;28;20475;-49
2022/02/23 09:51:25;;;;;;;7.75;1.63;;;;;;;;;;5067353;28;20036;-50
2022/02/23 09:53:55;;;;;;;5.30;1.35;;;;;;;;;;5065952;28;20437;-49
2022/02/23 09:56:21;;;;;;;7.30;1.23;;;;;;;;;;5062745;28;20284;-51
2022/02/23 09:58:48;;;;;;;11.38;1.95;;;;;;;;;;5069240;28;20033;-50
2022/02/23 10:01:17;;;;;;;6.15;1.83;;;;;;;;;;5058543;28;20025;-48
2022/02/23 10:03:45;;;;;;;7.82;1.40;;;;;;;;;;5072588;28;20032;-48
2022/02/23 10:06:21;;;;;;;7.07;1.38;;;;;;;;;;5068897;28;20047;-49
2022/02/23 10:08:48;;;;;;;6.45;2.40;;;;;;;;;;5065666;28;20043;-48
2022/02/23 10:11:18;;;;;;;6.63;1.65;;;;;;;;;;5069439;28;20036;-55
2022/02/23 10:13:51;;;;;;;6.95;1.48;;;;;;;;;;5066089;28;20096;-55
2022/02/23 10:16:17;;;;;;;9.85;1.77;;;;;;;;;;5068654;28;20032;-55
2022/02/23 10:18:44;;;;;;;9.77;1.52;;;;;;;;;;5059476;28;20437;-54
2022/02/23 10:21:10;;;;;;;8.63;1.92;;;;;;;;;;5069110;28;20484;-52
2022/02/23 10:23:36;;;;;;;9.57;1.48;;;;;;;;;;5058496;28;20033;-54
2022/02/23 10:26:05;;;;;;;4.97;1.35;;;;;;;;;;5081073;28;20028;-51
2022/02/23 10:28:32;;;;;;;3.80;1.35;;;;;;;;;;5069358;28;20040;-52
2022/02/23 10:31:09;;;;;;;6.15;1.17;;;;;;;;;;5067054;28;20037;-53
2022/02/23 10:33:39;;;;;;;5.57;1.55;;;;;;;;;;5068507;28;20106;-55
2022/02/23 10:36:05;;;;;;;8.18;1.42;;;;;;;;;;5062411;28;20051;-49
2022/02/23 10:38:33;;;;;;;9.57;1.65;;;;;;;;;;5059545;28;20028;-51
2022/02/23 10:41:00;;;;;;;6.95;1.40;;;;;;;;;;5065258;28;20502;-49
2022/02/23 10:43:31;;;;;;;10.35;1.58;;;;;;;;;;5064435;28;20096;-49
2022/02/23 10:46:03;;;;;;;9.57;1.52;;;;;;;;;;5058554;28;20021;-49
2022/02/23 10:48:30;;;;;;;7.82;1.90;;;;;;;;;;5057424;28;20033;-49
2022/02/23 10:50:56;;;;;;;8.45;1.48;;;;;;;;;;5069597;28;20029;-49
2022/02/23 10:53:26;;;;;;;6.85;1.58;;;;;;;;;;5065274;28;20050;-49
2022/02/23 10:55:53;;;;;;;5.22;1.10;;;;;;;;;;5065413;28;20045;-49
2022/02/23 10:58:19;;;;;;;9.70;1.42;;;;;;;;;;5062200;28;20044;-49
2022/02/23 11:00:49;;;;;;;5.55;1.90;;;;;;;;;;5068046;28;20037;-54
2022/02/23 11:03:18;;;;;;;4.55;1.23;;;;;;;;;;5067981;28;20028;-54
2022/02/23 11:05:45;;;;;;;5.38;1.30;;;;;;;;;;5066400;28;20093;-54
2022/02/23 11:08:14;;;;;;;7.35;1.40;;;;;;;;;;5063867;28;20046;-54
2022/02/23 11:10:43;;;;;;;11.45;1.40;;;;;;;;;;5067780;28;20415;-54
2022/02/23 11:13:12;;;;;;;6.38;1.20;;;;;;;;;;5068447;28;20090;-54
2022/02/23 11:15:42;;;;;;;14.18;1.35;;;;;;;;;;5073115;28;20476;-49
2022/02/23 11:18:08;;;;;;;2.97;1.33;;;;;;;;;;5065673;28;20020;-50
2022/02/23 11:20:34;;;;;;;11.95;1.77;;;;;;;;;;5063998;28;20381;-53
2022/02/23 11:23:02;;;;;;;8.55;1.40;;;;;;;;;;5066312;28;20523;-50
2022/02/23 11:25:30;;;;;;;8.80;1.50;;;;;;;;;;5069851;28;20453;-50
2022/02/23 11:28:03;;;;;;;6.35;1.50;;;;;;;;;;5062660;28;20484;-49
2022/02/23 11:30:29;;;;;;;5.45;1.02;;;;;;;;;;5062075;28;20029;-49
2022/02/23 11:32:55;;;;;;;5.55;1.40;;;;;;;;;;5067446;28;20051;-49
2022/02/23 11:35:40;;;;;;;7.00;1.80;;;;;;;;;;5067376;28;20055;-49
2022/02/23 11:38:06;;;;;;;6.43;1.60;;;;;;;;;;5067709;28;20016;-50
2022/02/23 11:40:46;;;;;;;8.32;1.77;;;;;;;;;;5072510;28;20025;-50
2022/02/23 11:43:28;;;;;;;6.88;1.65;;;;;;;;;;5067188;28;20032;-51
2022/02/23 11:45:55;;;;;;;4.10;1.00;;;;;;;;;;5063779;28;20024;-50
2022/02/23 11:48:21;;;;;;;7.82;1.25;;;;;;;;;;5058075;28;20048;-50
2022/02/23 11:51:01;;;;;;;4.57;1.20;;;;;;;;;;5060683;28;20036;-50
2022/02/23 11:53:37;;;;;;;6.55;1.30;;;;;;;;;;5064436;28;20108;-50
2022/02/23 11:56:11;;;;;;;8.02;1.42;;;;;;;;;;5055626;28;20045;-49
2022/02/23 11:58:37;;;;;;;;;;;;;;;;;;5065197;28;20028;-55
2022/02/23 12:01:03;;;;;;;5.53;1.00;;;;;;;;;;5069818;28;20600;-51
2022/02/23 12:03:30;;;;;;;5.70;1.17;;;;;;;;;;5059170;28;20086;-56
2022/02/23 12:05:58;;;;;;;5.60;1.20;;;;;;;;;;5065599;28;20055;-53
2022/02/23 12:08:32;;;;;;;4.57;1.17;;;;;;;;;;5068970;28;20549;-53
2022/02/23 12:11:13;;;;;;;11.75;1.70;;;;;;;;;;5062709;28;20020;-56
2022/02/23 12:13:41;;;;;;;8.43;1.70;;;;;;;;;;5062272;28;20115;-55
2022/02/23 12:16:22;;;;;;;8.68;1.00;;;;;;;;;;5066979;28;20021;-55
2022/02/23 12:18:49;;;;;;;8.50;1.02;;;;;;;;;;5069272;28;20372;-53
2022/02/23 12:21:15;;;;;;;4.72;1.23;;;;;;;;;;5060316;28;20058;-54
2022/02/23 12:23:43;;;;;;;4.53;1.35;;;;;;;;;;5061032;28;20412;-53
2022/02/23 12:26:12;;;;;;;7.03;1.15;;;;;;;;;;5060954;28;20032;-55
2022/02/23 12:28:39;;;;;;;6.78;1.00;;;;;;;;;;5064871;28;20045;-51
2022/02/23 12:31:06;;;;;;;5.03;1.15;;;;;;;;;;5065774;28;20070;-54
2022/02/23 12:33:34;;;;;;;2.83;0.63;;;;;;;;;;5061306;28;20100;-48
2022/02/23 12:36:01;;;;;;;4.05;0.98;;;;;;;;;;5065876;28;20032;-49
2022/02/23 12:38:29;;;;;;;6.90;1.17;;;;;;;;;;5061950;28;20028;-48
2022/02/23 12:40:56;;;;;;;3.30;1.17;;;;;;;;;;5067022;28;20033;-47
2022/02/23 12:43:22;;;;;;;5.55;0.93;;;;;;;;;;5062558;28;20747;-47
2022/02/23 12:45:48;;;;;;;4.22;0.77;;;;;;;;;;5071662;28;20099;-48
2022/02/23 12:48:14;;;;;;;4.10;1.17;;;;;;;;;;5057197;28;20112;-48
2022/02/23 12:50:40;;;;;;;4.82;1.17;;;;;;;;;;5066474;28;20451;-51
2022/02/23 12:53:06;;;;;;;4.25;0.80;;;;;;;;;;5059299;28;20029;-54
2022/02/23 12:55:32;;;;;;;7.97;1.30;;;;;;;;;;5053846;28;20049;-49
2022/02/23 12:57:58;;;;;;;3.42;0.80;;;;;;;;;;5057412;28;20025;-50
2022/02/23 13:00:26;;;;;;;3.60;1.05;;;;;;;;;;5063476;28;20747;-51
2022/02/23 13:02:52;;;;;;;6.72;1.33;;;;;;;;;;5062882;28;20492;-53
2022/02/23 13:05:18;;;;;;;3.53;1.00;;;;;;;;;;5065817;28;20490;-53
2022/02/23 13:07:44;;;;;;;3.42;1.00;;;;;;;;;;5071781;28;20060;-50
2022/02/23 13:10:10;;;;;;;5.43;1.15;;;;;;;;;;5072982;28;20050;-49
2022/02/23 13:12:36;;;;;;;10.05;1.83;;;;;;;;;;5072677;28;20785;-52
2022/02/23 13:15:05;;;;;;;5.00;0.70;;;;;;;;;;5068285;28;20047;-51
2022/02/23 13:17:31;;;;;;;6.50;1.90;;;;;;;;;;5065589;28;20086;-53
2022/02/23 13:19:58;;;;;;;9.38;1.63;;;;;;;;;;5083447;28;20099;-51
2022/02/23 13:22:30;;;;;;;7.22;1.25;;;;;;;;;;5064105;28;20040;-50
2022/02/23 13:24:56;;;;;;;4.28;1.10;;;;;;;;;;5061746;28;20021;-48
2022/02/23 13:27:22;;;;;;;3.28;1.33;;;;;;;;;;5065017;28;20033;-51
2022/02/23 13:29:53;;;;;;;4.97;1.02;;;;;;;;;;5070983;28;20082;-50
2022/02/23 13:32:21;;;;;;;2.60;0.95;;;;;;;;;;5069513;28;20454;-52
2022/02/23 13:34:50;;;;;;;5.32;1.02;;;;;;;;;;5071862;28;20028;-48
2022/02/23 13:37:25;;;;;;;8.88;1.67;;;;;;;;;;5067075;28;20024;-50
2022/02/23 13:39:57;;;;;;;9.75;1.88;;;;;;;;;;5071774;28;20028;-52
2022/02/23 13:42:31;;;;;;;2.88;1.00;;;;;;;;;;5062388;28;20060;-50
2022/02/23 13:44:58;;;;;;;;;;;;;;;;;;5071082;28;20094;-49
2022/02/23 13:47:26;;;;;;;5.15;1.20;;;;;;;;;;5064615;28;20372;-53
2022/02/23 13:49:56;;;;;;;9.77;1.20;;;;;;;;;;5070760;28;20036;-48
2022/02/23 13:52:23;;;;;;;5.13;1.23;;;;;;;;;;5063607;28;20033;-48
2022/02/23 13:54:59;;;;;;;6.38;1.20;;;;;;;;;;5067710;28;20121;-49
2022/02/23 13:57:25;;;;;;;4.80;0.90;;;;;;;;;;5066029;28;20036;-48
2022/02/23 13:59:51;;;;;;;4.03;0.98;;;;;;;;;;5071555;28;20028;-49
2022/02/23 14:02:17;;;;;;;2.78;0.75;;;;;;;;;;5065808;28;20036;-50
2022/02/23 14:04:45;;;;;;;6.18;0.82;;;;;;;;;;5069850;28;20937;-48
2022/02/23 14:07:18;;;;;;;5.15;1.35;;;;;;;;;;5073142;28;20020;-48
2022/02/23 14:09:44;;;;;;;;;;;;;;;;;;5066350;28;20496;-49
2022/02/23 14:12:12;;;;;;;6.30;0.95;;;;;;;;;;5062328;28;19944;-51
2022/02/23 14:14:41;;;;;;;5.22;0.90;;;;;;;;;;5065984;28;20532;-47
2022/02/23 14:17:15;;;;;;;4.50;0.70;;;;;;;;;;5072484;28;20078;-51
2022/02/23 14:19:43;;;;;;;4.75;1.15;;;;;;;;;;5065174;28;20029;-52
2022/02/23 14:22:15;;;;;;;3.67;1.00;;;;;;;;;;5056261;28;20121;-48
2022/02/23 14:24:42;;;;;;;3.37;0.80;;;;;;;;;;5062919;28;20025;-48
2022/02/23 14:27:11;;;;;;;8.82;1.38;;;;;;;;;;5063412;28;20361;-48
2022/02/23 14:29:38;;;;;;;4.32;1.02;;;;;;;;;;5071575;28;20036;-50
2022/02/23 14:32:16;;;;;;;3.92;1.30;;;;;;;;;;5065038;28;20021;-49
2022/02/23 14:34:48;;;;;;;4.82;0.90;;;;;;;;;;5072342;28;20028;-47
2022/02/23 14:37:18;;;;;;;5.63;1.15;;;;;;;;;;5070533;28;20024;-49
2022/02/23 14:39:44;;;;;;;7.40;1.35;;;;;;;;;;5060134;28;20051;-51